createdAt,value
2019-01-21T00:01:15.242Z,-0.80
2019-01-21T00:03:57.086Z,-0.80
2019-01-21T00:06:39.194Z,-0.80
2019-01-21T00:09:21.278Z,-0.70
2019-01-21T00:12:03.143Z,-0.70
2019-01-21T00:14:43.611Z,-0.70
2019-01-21T00:17:32.981Z,-0.70
2019-01-21T00:20:16.511Z,-0.70
2019-01-21T00:22:58.667Z,-0.70
2019-01-21T00:25:40.763Z,-0.70
2019-01-21T00:28:22.606Z,-0.70
2019-01-21T00:31:04.331Z,-0.70
2019-01-21T00:33:46.339Z,-0.70
2019-01-21T00:36:28.488Z,-0.70
2019-01-21T00:39:10.126Z,-0.70
2019-01-21T00:41:52.450Z,-0.70
2019-01-21T00:44:34.722Z,-0.60
2019-01-21T00:47:16.965Z,-0.60
2019-01-21T00:49:58.970Z,-0.60
2019-01-21T00:52:40.999Z,-0.60
2019-01-21T00:55:23.263Z,-0.60
2019-01-21T00:58:05.587Z,-0.50
2019-01-21T01:00:47.519Z,-0.50
2019-01-21T01:03:30.154Z,-0.60
2019-01-21T01:06:13.663Z,-0.60
2019-01-21T01:08:55.627Z,-0.70
2019-01-21T01:11:37.714Z,-0.70
2019-01-21T01:14:19.566Z,-0.70
2019-01-21T01:17:01.392Z,-0.70
2019-01-21T01:19:43.082Z,-0.70
2019-01-21T01:22:25.638Z,-0.80
2019-01-21T01:25:07.507Z,-0.80
2019-01-21T01:27:49.775Z,-0.80
2019-01-21T01:30:32.230Z,-0.80
2019-01-21T01:33:14.062Z,-0.70
2019-01-21T01:35:55.750Z,-0.70
2019-01-21T01:38:37.726Z,-0.70
2019-01-21T01:41:19.750Z,-0.70
2019-01-21T01:44:01.675Z,-0.80
2019-01-21T01:46:43.795Z,-0.80
2019-01-21T01:49:25.732Z,-0.80
2019-01-21T01:52:07.782Z,-0.80
2019-01-21T01:54:50.553Z,-0.80
2019-01-21T01:57:32.506Z,-0.80
2019-01-21T02:00:15.005Z,-0.70
2019-01-21T02:02:57.115Z,-0.70
2019-01-21T02:05:27.529Z,-0.70
2019-01-21T02:07:59.345Z,-0.70
2019-01-21T02:10:48.378Z,-0.60
2019-01-21T02:13:30.393Z,-0.60
2019-01-21T02:16:12.383Z,-0.60
2019-01-21T02:18:55.125Z,-0.60
2019-01-21T02:21:37.114Z,-0.60
2019-01-21T02:24:19.022Z,-0.60
2019-01-21T02:27:01.466Z,-0.60
2019-01-21T02:29:43.322Z,-0.60
2019-01-21T02:32:25.461Z,-0.60
2019-01-21T02:35:07.334Z,-0.60
2019-01-21T02:37:49.205Z,-0.60
2019-01-21T02:40:31.372Z,-0.50
2019-01-21T02:43:13.095Z,-0.50
2019-01-21T02:45:54.767Z,-0.50
2019-01-21T02:48:36.538Z,-0.50
2019-01-21T02:51:18.299Z,-0.40
2019-01-21T02:54:00.455Z,-0.40
2019-01-21T02:56:42.585Z,-0.40
2019-01-21T02:59:24.713Z,-0.40
2019-01-21T03:02:06.446Z,-0.50
2019-01-21T03:04:48.543Z,-0.50
2019-01-21T03:07:30.742Z,-0.50
2019-01-21T03:10:13.000Z,-0.50
2019-01-21T03:12:55.366Z,-0.50
2019-01-21T03:15:37.177Z,-0.50
2019-01-21T03:18:21.845Z,-0.60
2019-01-21T03:21:03.950Z,-0.50
2019-01-21T03:23:46.570Z,-0.50
2019-01-21T03:26:28.735Z,-0.50
2019-01-21T03:29:10.887Z,-0.50
2019-01-21T03:32:12.597Z,-0.40
2019-01-21T03:35:21.207Z,-0.40
2019-01-21T03:38:04.471Z,-0.40
2019-01-21T03:40:47.041Z,-0.50
2019-01-21T03:43:28.892Z,-0.50
2019-01-21T03:46:10.634Z,-0.50
2019-01-21T03:48:52.298Z,-0.50
2019-01-21T03:51:34.222Z,-0.50
2019-01-21T03:54:16.736Z,-0.50
2019-01-21T03:56:58.755Z,-0.50
2019-01-21T03:59:41.055Z,-0.40
2019-01-21T04:02:23.187Z,-0.50
2019-01-21T04:05:05.362Z,-0.50
2019-01-21T04:11:09.814Z,-0.50
2019-01-21T04:13:51.560Z,-0.50
2019-01-21T04:16:33.369Z,-0.50
2019-01-21T04:19:15.254Z,-0.50
2019-01-21T04:21:56.965Z,-0.50
2019-01-21T04:24:38.734Z,-0.60
2019-01-21T04:27:20.958Z,-0.60
2019-01-21T04:30:03.209Z,-0.60
2019-01-21T04:32:46.507Z,-0.60
2019-01-21T04:35:28.466Z,-0.60
2019-01-21T04:38:10.410Z,-0.60
2019-01-21T04:40:52.546Z,-0.50
2019-01-21T04:43:34.366Z,-0.50
2019-01-21T04:46:16.227Z,-0.50
2019-01-21T04:48:58.526Z,-0.50
2019-01-21T04:51:41.163Z,-0.50
2019-01-21T04:54:22.845Z,-0.50
2019-01-21T04:57:05.136Z,-0.50
2019-01-21T04:59:46.907Z,-0.50
2019-01-21T05:02:29.374Z,-0.50
2019-01-21T05:05:11.386Z,-0.60
2019-01-21T05:07:53.490Z,-0.60
2019-01-21T05:10:35.482Z,-0.50
2019-01-21T05:13:17.458Z,-0.50
2019-01-21T05:15:59.170Z,-0.50
2019-01-21T05:18:41.794Z,-0.50
2019-01-21T05:21:23.656Z,-0.40
2019-01-21T05:24:05.468Z,-0.40
2019-01-21T05:26:48.046Z,-0.50
2019-01-21T05:29:30.229Z,-0.40
2019-01-21T05:32:12.525Z,-0.40
2019-01-21T05:34:54.970Z,-0.40
2019-01-21T05:37:37.318Z,-0.40
2019-01-21T05:40:19.618Z,-0.30
2019-01-21T05:43:01.287Z,-0.40
2019-01-21T05:45:43.517Z,-0.40
2019-01-21T05:48:25.298Z,-0.40
2019-01-21T05:51:07.364Z,-0.40
2019-01-21T05:53:49.849Z,-0.40
2019-01-21T05:56:32.396Z,-0.40
2019-01-21T05:59:14.250Z,-0.40
2019-01-21T06:01:56.038Z,-0.40
2019-01-21T06:04:38.183Z,-0.40
2019-01-21T06:07:20.225Z,-0.40
2019-01-21T06:10:02.031Z,-0.40
2019-01-21T06:12:43.846Z,-0.30
2019-01-21T06:15:25.958Z,-0.30
2019-01-21T06:18:07.731Z,-0.30
2019-01-21T06:20:50.090Z,-0.30
2019-01-21T06:23:32.030Z,-0.30
2019-01-21T06:26:14.062Z,-0.40
2019-01-21T06:28:55.765Z,-0.30
2019-01-21T06:31:37.639Z,-0.30
2019-01-21T06:34:19.662Z,-0.30
2019-01-21T06:37:01.510Z,-0.30
2019-01-21T06:39:43.308Z,-0.40
2019-01-21T06:42:25.370Z,-0.40
2019-01-21T06:45:07.522Z,-0.50
2019-01-21T06:47:49.578Z,-0.50
2019-01-21T06:50:31.730Z,-0.50
2019-01-21T06:53:13.626Z,-0.50
2019-01-21T06:55:55.962Z,-0.50
2019-01-21T06:58:37.974Z,-0.50
2019-01-21T07:01:19.886Z,-0.50
2019-01-21T07:04:21.629Z,-0.40
2019-01-21T07:07:30.214Z,-0.40
2019-01-21T07:10:14.102Z,-0.40
2019-01-21T07:12:55.888Z,-0.40
2019-01-21T07:15:38.054Z,-0.50
2019-01-21T07:18:19.901Z,-0.40
2019-01-21T07:21:02.204Z,-0.40
2019-01-21T07:23:44.314Z,-0.40
2019-01-21T07:26:26.766Z,-0.40
2019-01-21T07:29:08.898Z,-0.30
2019-01-21T07:31:51.539Z,-0.30
2019-01-21T07:34:33.246Z,-0.30
2019-01-21T07:37:15.778Z,-0.30
2019-01-21T07:39:57.682Z,-0.30
2019-01-21T07:42:39.486Z,-0.30
2019-01-21T07:45:21.666Z,-0.30
2019-01-21T07:48:05.191Z,-0.30
2019-01-21T07:50:46.910Z,-0.30
2019-01-21T07:53:28.830Z,-0.30
2019-01-21T07:56:10.603Z,-0.30
2019-01-21T07:58:52.621Z,-0.30
2019-01-21T08:01:34.868Z,-0.20
2019-01-21T08:04:16.635Z,-0.20
2019-01-21T08:06:58.825Z,-0.20
2019-01-21T08:09:40.919Z,-0.20
2019-01-21T08:12:22.984Z,-0.20
2019-01-21T08:15:04.781Z,-0.20
2019-01-21T08:17:46.572Z,-0.10
2019-01-21T08:20:28.754Z,-0.10
2019-01-21T08:23:10.686Z,-0.10
2019-01-21T08:25:52.687Z,-0.10
2019-01-21T08:28:34.730Z,-0.10
2019-01-21T08:31:16.906Z,-0.10
2019-01-21T08:33:58.974Z,0.00
2019-01-21T08:36:41.150Z,0.00
2019-01-21T08:39:23.282Z,0.10
2019-01-21T08:42:05.294Z,0.10
2019-01-21T08:44:47.106Z,0.00
2019-01-21T08:47:28.788Z,0.00
2019-01-21T08:50:11.065Z,0.00
2019-01-21T08:52:52.822Z,0.00
2019-01-21T08:55:35.081Z,0.00
2019-01-21T08:58:16.718Z,0.00
2019-01-21T09:00:58.903Z,0.10
2019-01-21T09:03:41.487Z,0.10
2019-01-21T09:06:23.518Z,0.10
2019-01-21T09:09:06.039Z,0.10
2019-01-21T09:11:48.286Z,0.20
2019-01-21T09:14:30.015Z,0.20
2019-01-21T09:17:12.280Z,0.10
2019-01-21T09:19:54.510Z,0.20
2019-01-21T09:22:36.482Z,0.20
2019-01-21T09:25:18.438Z,0.10
2019-01-21T09:28:00.299Z,0.10
2019-01-21T09:30:42.502Z,0.20
2019-01-21T09:33:24.835Z,0.20
2019-01-21T09:36:06.456Z,0.30
2019-01-21T09:38:48.674Z,0.30
2019-01-21T09:41:30.826Z,0.30
2019-01-21T09:44:13.106Z,0.40
2019-01-21T09:46:54.764Z,0.80
2019-01-21T09:49:36.890Z,1.00
2019-01-21T09:52:19.054Z,1.00
2019-01-21T09:55:01.358Z,1.10
2019-01-21T09:57:43.598Z,0.90
2019-01-21T10:00:25.931Z,0.80
2019-01-21T10:03:07.782Z,0.80
2019-01-21T10:05:49.891Z,0.70
2019-01-21T10:08:32.315Z,0.70
2019-01-21T10:11:14.674Z,0.60
2019-01-21T10:13:56.985Z,0.60
2019-01-21T10:16:39.086Z,0.60
2019-01-21T10:19:20.974Z,0.50
2019-01-21T10:22:03.222Z,0.40
2019-01-21T10:24:45.117Z,0.50
2019-01-21T10:27:27.577Z,0.50
2019-01-21T10:30:09.718Z,0.50
2019-01-21T10:32:51.851Z,0.60
2019-01-21T10:35:34.146Z,0.60
2019-01-21T10:38:16.478Z,0.60
2019-01-21T10:40:58.906Z,0.60
2019-01-21T10:43:40.411Z,0.60
2019-01-21T10:46:22.411Z,0.70
2019-01-21T10:49:04.377Z,0.80
2019-01-21T10:51:46.418Z,0.70
2019-01-21T10:54:28.622Z,0.70
2019-01-21T10:57:10.330Z,0.70
2019-01-21T10:59:52.246Z,0.70
2019-01-21T11:02:34.346Z,0.70
2019-01-21T11:05:16.169Z,0.70
2019-01-21T11:07:58.343Z,0.70
2019-01-21T11:10:40.484Z,0.80
2019-01-21T11:13:22.774Z,0.80
2019-01-21T11:16:04.573Z,0.90
2019-01-21T11:18:46.858Z,0.90
2019-01-21T11:21:28.583Z,0.90
2019-01-21T11:24:10.797Z,0.90
2019-01-21T11:26:52.679Z,1.00
2019-01-21T11:29:34.521Z,1.10
2019-01-21T11:32:16.423Z,1.00
2019-01-21T11:34:58.052Z,1.00
2019-01-21T11:37:40.423Z,1.10
2019-01-21T11:40:40.117Z,1.10
2019-01-21T11:43:50.070Z,1.20
2019-01-21T11:46:33.915Z,1.20
2019-01-21T11:49:16.339Z,1.30
2019-01-21T11:51:58.154Z,1.30
2019-01-21T11:54:40.115Z,1.40
2019-01-21T11:57:22.039Z,1.30
2019-01-21T12:00:05.701Z,1.40
2019-01-21T12:02:48.094Z,1.30
2019-01-21T12:05:30.247Z,1.30
2019-01-21T12:08:12.337Z,1.30
2019-01-21T12:10:54.158Z,1.30
2019-01-21T12:13:36.558Z,1.40
2019-01-21T12:16:18.457Z,1.40
2019-01-21T12:19:00.519Z,1.30
2019-01-21T12:21:42.765Z,1.30
2019-01-21T12:24:24.923Z,1.30
2019-01-21T12:27:06.699Z,1.30
2019-01-21T12:29:48.386Z,1.30
2019-01-21T12:32:30.510Z,1.30
2019-01-21T12:35:12.269Z,1.40
2019-01-21T12:37:54.823Z,1.40
2019-01-21T12:40:37.042Z,1.40
2019-01-21T12:43:19.342Z,1.40
2019-01-21T12:46:01.074Z,1.40
2019-01-21T12:48:43.394Z,1.40
2019-01-21T12:51:25.242Z,1.40
2019-01-21T12:54:06.834Z,1.50
2019-01-21T12:56:49.090Z,1.40
2019-01-21T12:59:31.222Z,1.50
2019-01-21T13:02:12.962Z,1.50
2019-01-21T13:04:54.918Z,1.60
2019-01-21T13:07:36.878Z,1.60
2019-01-21T13:10:18.802Z,1.50
2019-01-21T13:13:00.778Z,1.50
2019-01-21T13:15:42.982Z,1.40
2019-01-21T13:18:25.401Z,1.50
2019-01-21T13:21:07.401Z,1.50
2019-01-21T13:23:49.677Z,1.40
2019-01-21T13:26:31.718Z,1.50
2019-01-21T13:29:13.758Z,1.40
2019-01-21T13:31:55.981Z,1.40
2019-01-21T13:34:37.994Z,1.40
2019-01-21T13:37:19.658Z,1.30
2019-01-21T13:40:01.482Z,1.20
2019-01-21T13:42:43.186Z,1.20
2019-01-21T13:45:25.632Z,1.10
2019-01-21T13:48:07.306Z,1.20
2019-01-21T13:50:49.798Z,1.10
2019-01-21T13:53:31.915Z,1.10
2019-01-21T13:56:13.566Z,1.10
2019-01-21T13:58:55.360Z,1.20
2019-01-21T14:01:37.769Z,1.10
2019-01-21T14:04:20.098Z,1.10
2019-01-21T14:07:02.245Z,1.10
2019-01-21T14:09:44.742Z,1.20
2019-01-21T14:12:26.847Z,1.20
2019-01-21T14:15:08.618Z,1.20
2019-01-21T14:17:51.076Z,1.40
2019-01-21T14:20:33.271Z,1.30
2019-01-21T14:23:15.049Z,1.20
2019-01-21T14:25:57.011Z,1.20
2019-01-21T14:28:38.894Z,1.10
2019-01-21T14:31:20.570Z,1.10
2019-01-21T14:34:02.823Z,1.10
2019-01-21T14:36:44.626Z,1.10
2019-01-21T14:39:26.846Z,1.10
2019-01-21T14:42:08.986Z,1.10
2019-01-21T14:44:51.390Z,1.10
2019-01-21T14:50:59.636Z,1.10
2019-01-21T14:53:42.765Z,1.00
2019-01-21T14:56:24.914Z,1.00
2019-01-21T14:59:06.894Z,1.00
2019-01-21T15:01:49.109Z,1.00
2019-01-21T15:04:30.910Z,1.10
2019-01-21T15:07:13.079Z,1.00
2019-01-21T15:09:55.103Z,1.00
2019-01-21T15:12:37.349Z,0.90
2019-01-21T15:15:19.370Z,0.90
2019-01-21T15:18:01.226Z,0.80
2019-01-21T15:20:43.523Z,0.80
2019-01-21T15:23:25.788Z,0.80
2019-01-21T15:26:08.355Z,0.90
2019-01-21T15:28:50.319Z,0.80
2019-01-21T15:31:32.151Z,0.80
2019-01-21T15:34:14.104Z,0.80
2019-01-21T15:36:56.311Z,0.80
2019-01-21T15:39:38.772Z,0.80
2019-01-21T15:42:20.930Z,0.90
2019-01-21T15:45:03.008Z,0.90
2019-01-21T15:47:44.831Z,0.90
2019-01-21T15:50:26.942Z,0.80
2019-01-21T15:53:09.378Z,0.90
2019-01-21T15:55:51.717Z,0.80
2019-01-21T15:58:34.050Z,0.80
2019-01-21T16:01:15.962Z,0.70
2019-01-21T16:03:58.206Z,0.60
2019-01-21T16:06:40.514Z,0.60
2019-01-21T16:09:22.698Z,0.60
2019-01-21T16:12:17.460Z,0.60
2019-01-21T16:15:45.000Z,0.60
2019-01-21T16:18:28.895Z,0.60
2019-01-21T16:21:12.817Z,0.60
2019-01-21T16:23:54.688Z,0.60
2019-01-21T16:26:36.787Z,0.60
2019-01-21T16:29:18.770Z,0.60
2019-01-21T16:32:00.614Z,0.60
2019-01-21T16:34:42.499Z,0.60
2019-01-21T16:37:24.829Z,0.60
2019-01-21T16:40:07.016Z,0.60
2019-01-21T16:42:49.199Z,0.70
2019-01-21T16:45:31.090Z,0.90
2019-01-21T16:48:13.097Z,1.00
2019-01-21T16:50:54.999Z,1.00
2019-01-21T16:53:36.974Z,0.90
2019-01-21T16:56:18.666Z,0.80
2019-01-21T16:59:00.402Z,0.70
2019-01-21T17:01:42.210Z,0.70
2019-01-21T17:04:23.954Z,0.70
2019-01-21T17:07:05.690Z,0.60
2019-01-21T17:09:47.536Z,0.60
2019-01-21T17:12:29.346Z,0.60
2019-01-21T17:15:11.599Z,0.60
2019-01-21T17:17:53.842Z,0.50
2019-01-21T17:20:36.062Z,0.50
2019-01-21T17:23:18.250Z,0.50
2019-01-21T17:26:01.222Z,0.50
2019-01-21T17:28:43.249Z,0.50
2019-01-21T17:31:24.969Z,0.50
2019-01-21T17:34:06.946Z,0.50
2019-01-21T17:36:49.182Z,0.50
2019-01-21T17:39:31.327Z,0.50
2019-01-21T17:42:13.018Z,0.50
2019-01-21T17:44:54.938Z,0.50
2019-01-21T17:47:37.458Z,0.50
2019-01-21T17:50:19.142Z,0.50
2019-01-21T17:53:01.130Z,0.70
2019-01-21T17:55:43.686Z,0.70
2019-01-21T17:58:25.361Z,0.90
2019-01-21T18:01:07.178Z,1.10
2019-01-21T18:03:49.049Z,1.10
2019-01-21T18:06:30.842Z,1.10
2019-01-21T18:09:11.278Z,1.10
2019-01-21T18:12:00.622Z,1.20
2019-01-21T18:14:44.238Z,1.30
2019-01-21T18:17:25.846Z,1.40
2019-01-21T18:20:08.165Z,1.40
2019-01-21T18:22:49.946Z,1.20
2019-01-21T18:25:33.069Z,1.20
2019-01-21T18:28:14.967Z,1.30
2019-01-21T18:30:57.271Z,1.20
2019-01-21T18:33:40.180Z,1.20
2019-01-21T18:36:22.262Z,1.00
2019-01-21T18:39:04.339Z,0.90
2019-01-21T18:41:46.415Z,0.80
2019-01-21T18:44:28.567Z,0.70
2019-01-21T18:47:10.438Z,0.60
2019-01-21T18:49:52.669Z,0.60
2019-01-21T18:52:35.791Z,0.60
2019-01-21T18:55:18.437Z,0.60
2019-01-21T18:58:00.753Z,0.60
2019-01-21T19:00:42.694Z,0.60
2019-01-21T19:03:24.606Z,0.60
2019-01-21T19:06:07.478Z,0.60
2019-01-21T19:08:49.178Z,0.60
2019-01-21T19:11:31.235Z,0.60
2019-01-21T19:14:13.046Z,0.60
2019-01-21T19:16:55.161Z,0.60
2019-01-21T19:19:37.338Z,0.60
2019-01-21T19:22:19.410Z,0.60
2019-01-21T19:25:01.203Z,0.60
2019-01-21T19:27:43.007Z,0.60
2019-01-21T19:30:25.074Z,0.80
2019-01-21T19:33:07.234Z,0.90
2019-01-21T19:35:49.036Z,0.80
2019-01-21T19:38:31.202Z,0.80
2019-01-21T19:41:13.797Z,0.70
2019-01-21T19:43:55.875Z,0.60
2019-01-21T19:46:43.953Z,0.60
2019-01-21T19:49:21.527Z,0.60
2019-01-21T19:52:03.610Z,0.50
2019-01-21T19:54:46.058Z,0.50
2019-01-21T19:57:27.963Z,0.50
2019-01-21T20:00:09.814Z,0.40
2019-01-21T20:02:51.412Z,0.40
2019-01-21T20:05:33.514Z,0.40
2019-01-21T20:08:15.233Z,0.30
2019-01-21T20:10:57.044Z,0.30
2019-01-21T20:13:38.997Z,0.30
2019-01-21T20:16:21.214Z,0.30
2019-01-21T20:19:03.178Z,0.30
2019-01-21T20:21:45.011Z,0.30
2019-01-21T20:24:27.254Z,0.30
2019-01-21T20:27:09.513Z,0.30
2019-01-21T20:29:51.847Z,0.30
2019-01-21T20:32:34.395Z,0.30
2019-01-21T20:35:17.454Z,0.20
2019-01-21T20:37:59.088Z,0.20
2019-01-21T20:40:41.113Z,0.20
2019-01-21T20:43:23.378Z,0.20
2019-01-21T20:46:05.024Z,0.20
2019-01-21T20:48:47.107Z,0.20
2019-01-21T20:51:29.155Z,0.20
2019-01-21T20:54:11.022Z,0.20
2019-01-21T20:56:53.358Z,0.20
2019-01-21T20:59:35.282Z,0.40
2019-01-21T21:02:17.153Z,0.40
2019-01-21T21:04:59.514Z,0.30
2019-01-21T21:07:41.470Z,0.30
2019-01-21T21:10:23.834Z,0.20
2019-01-21T21:13:04.427Z,0.20
2019-01-21T21:15:53.858Z,0.20
2019-01-21T21:18:37.338Z,0.20
2019-01-21T21:21:19.243Z,0.20
2019-01-21T21:24:01.230Z,0.20
2019-01-21T21:26:43.469Z,0.30
2019-01-21T21:29:25.497Z,0.30
2019-01-21T21:32:07.501Z,0.30
2019-01-21T21:34:49.730Z,0.20
2019-01-21T21:37:31.930Z,0.20
2019-01-21T21:40:13.983Z,0.20
2019-01-21T21:42:55.891Z,0.10
2019-01-21T21:45:37.686Z,0.10
2019-01-21T21:48:19.424Z,0.20
2019-01-21T21:51:01.154Z,0.20
2019-01-21T21:53:42.882Z,0.20
2019-01-21T21:56:24.739Z,0.20
2019-01-21T21:59:06.470Z,0.10
2019-01-21T22:01:48.786Z,0.10
2019-01-21T22:04:30.803Z,0.00
2019-01-21T22:07:12.814Z,0.00
2019-01-21T22:10:02.236Z,0.00
2019-01-21T22:12:46.311Z,0.00
2019-01-21T22:15:28.242Z,0.00
2019-01-21T22:18:09.903Z,0.00
2019-01-21T22:20:51.882Z,0.00
2019-01-21T22:23:33.979Z,0.00
2019-01-21T22:26:16.306Z,0.00
2019-01-21T22:28:58.155Z,0.10
2019-01-21T22:31:40.106Z,0.10
2019-01-21T22:34:22.021Z,0.10
2019-01-21T22:37:03.962Z,0.10
2019-01-21T22:39:45.860Z,0.10
2019-01-21T22:42:27.981Z,0.00
2019-01-21T22:45:10.142Z,0.00
2019-01-21T22:47:51.974Z,0.00
2019-01-21T22:50:34.458Z,0.00
2019-01-21T22:53:17.057Z,0.00
2019-01-21T22:55:59.079Z,0.00
2019-01-21T22:58:41.432Z,0.10
2019-01-21T23:01:23.401Z,0.10
2019-01-21T23:04:06.122Z,0.10
2019-01-21T23:06:48.294Z,0.00
2019-01-21T23:09:30.750Z,0.10
2019-01-21T23:12:12.611Z,0.00
2019-01-21T23:14:55.630Z,0.00
2019-01-21T23:17:37.974Z,0.00
2019-01-21T23:20:19.699Z,0.00
2019-01-21T23:23:02.115Z,0.00
2019-01-21T23:25:44.344Z,0.00
2019-01-21T23:28:26.190Z,0.00
2019-01-21T23:31:08.079Z,0.00
2019-01-21T23:33:50.402Z,0.00
2019-01-21T23:36:32.385Z,0.00
2019-01-21T23:39:14.943Z,0.00
2019-01-21T23:41:57.108Z,0.00
2019-01-21T23:44:38.990Z,0.00
2019-01-21T23:47:20.951Z,0.00
2019-01-21T23:50:02.742Z,0.00
2019-01-21T23:52:44.971Z,-0.10
2019-01-21T23:55:27.177Z,-0.10
2019-01-21T23:58:08.890Z,-0.10
